<?xml version="1.0" encoding="UTF-8"?>
<gpx version="1.1" creator="https://www.youtrack.es" xsi:schemaLocation="http://www.topografix.com/GPX/1/1 http://www.topografix.com/GPX/1/1/gpx.xsd http://www.garmin.com/xmlschemas/GpxExtensions/v3 http://www.garmin.com/xmlschemas/GpxExtensionsv3.xsd http://www.garmin.com/xmlschemas/TrackPointExtension/v1 http://www.garmin.com/xmlschemas/TrackPointExtensionv1.xsd" xmlns:gpxtpx="http://www.garmin.com/xmlschemas/TrackPointExtension/v1" xmlns:gpxx="http://www.garmin.com/xmlschemas/GpxExtensions/v3" xmlns:xsi="http://www.w3.org/2001/XMLSchema-instance">
  <metadata>
    <author>
      <name>marivi cc</name>
      <email id="vconstant.c" domain="gmail.com"/>
    </author>
    <link href="https://www.youtrack.es">
      <text>YouTrack.es</text>
    </link>
    <time>2026-05-08T23:26:21Z</time>
  </metadata>
  <trk>
    <src>https://www.youtrack.es</src>
    <link href="https://www.youtrack.es/ruta/5382-fusion">
      <text>YouTrack.es</text>
    </link>
    <trkseg>
      <trkpt lat="38.407493" lon="-0.614920">
        <ele>223.21</ele>
        <time>2012-06-02T05:50:37Z</time>
      </trkpt>
      <trkpt lat="38.407305" lon="-0.614739">
        <ele>222.71</ele>
        <time>2012-06-02T05:51:23Z</time>
      </trkpt>
      <trkpt lat="38.407350" lon="-0.615069">
        <ele>222.75</ele>
        <time>2012-06-02T05:52:17Z</time>
      </trkpt>
      <trkpt lat="38.405291" lon="-0.621938">
        <ele>228.52</ele>
        <time>2012-06-02T06:08:19Z</time>
      </trkpt>
      <trkpt lat="38.405219" lon="-0.622876">
        <ele>229.97</ele>
        <time>2012-06-02T06:09:17Z</time>
      </trkpt>
      <trkpt lat="38.405524" lon="-0.624337">
        <ele>233.72</ele>
        <time>2012-06-02T06:10:43Z</time>
      </trkpt>
      <trkpt lat="38.405857" lon="-0.625133">
        <ele>235.24</ele>
        <time>2012-06-02T06:11:35Z</time>
      </trkpt>
      <trkpt lat="38.406535" lon="-0.626061">
        <ele>235.72</ele>
        <time>2012-06-02T06:13:01Z</time>
      </trkpt>
      <trkpt lat="38.410452" lon="-0.628950">
        <ele>243.86</ele>
        <time>2012-06-02T06:18:21Z</time>
      </trkpt>
      <trkpt lat="38.411398" lon="-0.630022">
        <ele>246.78</ele>
        <time>2012-06-02T06:20:10Z</time>
      </trkpt>
      <trkpt lat="38.411816" lon="-0.630870">
        <ele>248.21</ele>
        <time>2012-06-02T06:21:05Z</time>
      </trkpt>
      <trkpt lat="38.413568" lon="-0.636397">
        <ele>257.31</ele>
        <time>2012-06-02T06:26:33Z</time>
      </trkpt>
      <trkpt lat="38.414028" lon="-0.637300">
        <ele>258.80</ele>
        <time>2012-06-02T06:28:03Z</time>
      </trkpt>
      <trkpt lat="38.414658" lon="-0.638062">
        <ele>260.26</ele>
        <time>2012-06-02T06:29:05Z</time>
      </trkpt>
      <trkpt lat="38.421048" lon="-0.642857">
        <ele>275.67</ele>
        <time>2012-06-02T06:37:49Z</time>
      </trkpt>
      <trkpt lat="38.422327" lon="-0.643435">
        <ele>278.94</ele>
        <time>2012-06-02T06:39:23Z</time>
      </trkpt>
      <trkpt lat="38.424032" lon="-0.643438">
        <ele>283.37</ele>
        <time>2012-06-02T06:41:19Z</time>
      </trkpt>
      <trkpt lat="38.427167" lon="-0.642100">
        <ele>290.99</ele>
        <time>2012-06-02T06:45:21Z</time>
      </trkpt>
      <trkpt lat="38.428139" lon="-0.641858">
        <ele>292.42</ele>
        <time>2012-06-02T06:46:28Z</time>
      </trkpt>
      <trkpt lat="38.433022" lon="-0.642160">
        <ele>299.69</ele>
        <time>2012-06-02T06:52:02Z</time>
      </trkpt>
      <trkpt lat="38.433626" lon="-0.642355">
        <ele>300.66</ele>
        <time>2012-06-02T06:52:46Z</time>
      </trkpt>
      <trkpt lat="38.434379" lon="-0.642858">
        <ele>302.53</ele>
        <time>2012-06-02T06:53:48Z</time>
      </trkpt>
      <trkpt lat="38.434875" lon="-0.643432">
        <ele>303.91</ele>
        <time>2012-06-02T06:54:33Z</time>
      </trkpt>
      <trkpt lat="38.439109" lon="-0.649038">
        <ele>317.96</ele>
        <time>2012-06-02T07:01:43Z</time>
      </trkpt>
      <trkpt lat="38.439796" lon="-0.649594">
        <ele>320.38</ele>
        <time>2012-06-02T07:02:40Z</time>
      </trkpt>
      <trkpt lat="38.442163" lon="-0.651012">
        <ele>326.06</ele>
        <time>2012-06-02T07:05:45Z</time>
      </trkpt>
      <trkpt lat="38.442786" lon="-0.651736">
        <ele>327.56</ele>
        <time>2012-06-02T07:06:43Z</time>
      </trkpt>
      <trkpt lat="38.443163" lon="-0.652537">
        <ele>329.41</ele>
        <time>2012-06-02T07:07:35Z</time>
      </trkpt>
      <trkpt lat="38.443369" lon="-0.653688">
        <ele>332.40</ele>
        <time>2012-06-02T07:08:39Z</time>
      </trkpt>
      <trkpt lat="38.442933" lon="-0.657561">
        <ele>340.03</ele>
        <time>2012-06-02T07:12:12Z</time>
      </trkpt>
      <trkpt lat="38.443020" lon="-0.659192">
        <ele>340.99</ele>
        <time>2012-06-02T07:13:58Z</time>
      </trkpt>
      <trkpt lat="38.443462" lon="-0.660933">
        <ele>346.28</ele>
        <time>2012-06-02T07:15:41Z</time>
      </trkpt>
      <trkpt lat="38.444952" lon="-0.665402">
        <ele>354.92</ele>
        <time>2012-06-02T07:20:07Z</time>
      </trkpt>
      <trkpt lat="38.445417" lon="-0.666176">
        <ele>355.81</ele>
        <time>2012-06-02T07:21:03Z</time>
      </trkpt>
      <trkpt lat="38.445964" lon="-0.666752">
        <ele>357.81</ele>
        <time>2012-06-02T07:21:53Z</time>
      </trkpt>
      <trkpt lat="38.446578" lon="-0.667050">
        <ele>359.28</ele>
        <time>2012-06-02T07:22:40Z</time>
      </trkpt>
      <trkpt lat="38.447216" lon="-0.667179">
        <ele>361.11</ele>
        <time>2012-06-02T07:23:26Z</time>
      </trkpt>
      <trkpt lat="38.449200" lon="-0.667202">
        <ele>365.07</ele>
        <time>2012-06-02T07:25:53Z</time>
      </trkpt>
      <trkpt lat="38.450328" lon="-0.667643">
        <ele>367.82</ele>
        <time>2012-06-02T07:27:17Z</time>
      </trkpt>
      <trkpt lat="38.451233" lon="-0.668746">
        <ele>370.75</ele>
        <time>2012-06-02T07:28:46Z</time>
      </trkpt>
      <trkpt lat="38.451649" lon="-0.670051">
        <ele>374.68</ele>
        <time>2012-06-02T07:30:10Z</time>
      </trkpt>
      <trkpt lat="38.451635" lon="-0.671051">
        <ele>376.01</ele>
        <time>2012-06-02T07:31:10Z</time>
      </trkpt>
      <trkpt lat="38.451425" lon="-0.672058">
        <ele>377.53</ele>
        <time>2012-06-02T07:32:06Z</time>
      </trkpt>
      <trkpt lat="38.450761" lon="-0.673203">
        <ele>379.40</ele>
        <time>2012-06-02T07:33:27Z</time>
      </trkpt>
      <trkpt lat="38.450089" lon="-0.673758">
        <ele>381.31</ele>
        <time>2012-06-02T07:34:25Z</time>
      </trkpt>
      <trkpt lat="38.447771" lon="-0.674876">
        <ele>384.73</ele>
        <time>2012-06-02T07:37:23Z</time>
      </trkpt>
      <trkpt lat="38.446978" lon="-0.675771">
        <ele>386.16</ele>
        <time>2012-06-02T07:38:57Z</time>
      </trkpt>
      <trkpt lat="38.444535" lon="-0.682447">
        <ele>398.13</ele>
        <time>2012-06-02T07:45:53Z</time>
      </trkpt>
      <trkpt lat="38.444589" lon="-0.684129">
        <ele>401.01</ele>
        <time>2012-06-02T07:47:31Z</time>
      </trkpt>
      <trkpt lat="38.444891" lon="-0.685010">
        <ele>402.60</ele>
        <time>2012-06-02T07:49:16Z</time>
      </trkpt>
      <trkpt lat="38.445345" lon="-0.685697">
        <ele>404.49</ele>
        <time>2012-06-02T07:50:10Z</time>
      </trkpt>
      <trkpt lat="38.446380" lon="-0.686466">
        <ele>407.77</ele>
        <time>2012-06-02T07:51:39Z</time>
      </trkpt>
      <trkpt lat="38.448310" lon="-0.686865">
        <ele>412.20</ele>
        <time>2012-06-02T07:54:07Z</time>
      </trkpt>
      <trkpt lat="38.449260" lon="-0.686546">
        <ele>415.42</ele>
        <time>2012-06-02T07:55:33Z</time>
      </trkpt>
      <trkpt lat="38.450105" lon="-0.685717">
        <ele>417.43</ele>
        <time>2012-06-02T07:56:51Z</time>
      </trkpt>
      <trkpt lat="38.450567" lon="-0.684790">
        <ele>418.81</ele>
        <time>2012-06-02T07:57:54Z</time>
      </trkpt>
      <trkpt lat="38.451357" lon="-0.681861">
        <ele>424.18</ele>
        <time>2012-06-02T08:00:52Z</time>
      </trkpt>
      <trkpt lat="38.451974" lon="-0.680972">
        <ele>426.56</ele>
        <time>2012-06-02T08:01:59Z</time>
      </trkpt>
      <trkpt lat="38.452533" lon="-0.680461">
        <ele>428.48</ele>
        <time>2012-06-02T08:02:48Z</time>
      </trkpt>
      <trkpt lat="38.454992" lon="-0.679383">
        <ele>436.18</ele>
        <time>2012-06-02T08:06:54Z</time>
      </trkpt>
      <trkpt lat="38.455960" lon="-0.679252">
        <ele>437.54</ele>
        <time>2012-06-02T08:08:05Z</time>
      </trkpt>
      <trkpt lat="38.457130" lon="-0.679531">
        <ele>439.53</ele>
        <time>2012-06-02T08:09:32Z</time>
      </trkpt>
      <trkpt lat="38.459488" lon="-0.680592">
        <ele>446.30</ele>
        <time>2012-06-02T08:12:36Z</time>
      </trkpt>
      <trkpt lat="38.460260" lon="-0.680677">
        <ele>448.65</ele>
        <time>2012-06-02T08:13:33Z</time>
      </trkpt>
      <trkpt lat="38.460871" lon="-0.680554">
        <ele>449.61</ele>
        <time>2012-06-02T08:14:16Z</time>
      </trkpt>
      <trkpt lat="38.463722" lon="-0.679393">
        <ele>457.22</ele>
        <time>2012-06-02T08:18:20Z</time>
      </trkpt>
      <trkpt lat="38.465864" lon="-0.678366">
        <ele>462.11</ele>
        <time>2012-06-02T08:21:18Z</time>
      </trkpt>
      <trkpt lat="38.466574" lon="-0.677531">
        <ele>464.52</ele>
        <time>2012-06-02T08:22:29Z</time>
      </trkpt>
      <trkpt lat="38.467925" lon="-0.675081">
        <ele>468.82</ele>
        <time>2012-06-02T08:25:17Z</time>
      </trkpt>
      <trkpt lat="38.469865" lon="-0.673665">
        <ele>473.12</ele>
        <time>2012-06-02T08:27:53Z</time>
      </trkpt>
      <trkpt lat="38.470619" lon="-0.672779">
        <ele>476.06</ele>
        <time>2012-06-02T08:29:10Z</time>
      </trkpt>
      <trkpt lat="38.470967" lon="-0.671825">
        <ele>477.49</ele>
        <time>2012-06-02T08:30:09Z</time>
      </trkpt>
      <trkpt lat="38.471173" lon="-0.669788">
        <ele>477.96</ele>
        <time>2012-06-02T08:32:12Z</time>
      </trkpt>
      <trkpt lat="38.471415" lon="-0.668782">
        <ele>480.37</ele>
        <time>2012-06-02T08:33:12Z</time>
      </trkpt>
      <trkpt lat="38.473825" lon="-0.662368">
        <ele>492.82</ele>
        <time>2012-06-02T08:39:55Z</time>
      </trkpt>
      <trkpt lat="38.473898" lon="-0.661076">
        <ele>494.78</ele>
        <time>2012-06-02T08:41:09Z</time>
      </trkpt>
      <trkpt lat="38.473607" lon="-0.654444">
        <ele>506.81</ele>
        <time>2012-06-02T08:49:10Z</time>
      </trkpt>
      <trkpt lat="38.473682" lon="-0.653172">
        <ele>510.11</ele>
        <time>2012-06-02T08:50:26Z</time>
      </trkpt>
      <trkpt lat="38.474025" lon="-0.651605">
        <ele>512.01</ele>
        <time>2012-06-02T08:51:58Z</time>
      </trkpt>
      <trkpt lat="38.476005" lon="-0.646507">
        <ele>524.16</ele>
        <time>2012-06-02T08:57:46Z</time>
      </trkpt>
      <trkpt lat="38.476954" lon="-0.645224">
        <ele>527.97</ele>
        <time>2012-06-02T08:59:40Z</time>
      </trkpt>
      <trkpt lat="38.477774" lon="-0.644621">
        <ele>529.34</ele>
        <time>2012-06-02T09:00:53Z</time>
      </trkpt>
      <trkpt lat="38.478462" lon="-0.643690">
        <ele>532.23</ele>
        <time>2012-06-02T09:02:15Z</time>
      </trkpt>
      <trkpt lat="38.478825" lon="-0.640959">
        <ele>538.58</ele>
        <time>2012-06-02T09:05:31Z</time>
      </trkpt>
      <trkpt lat="38.478697" lon="-0.638816">
        <ele>541.88</ele>
        <time>2012-06-02T09:07:43Z</time>
      </trkpt>
      <trkpt lat="38.479096" lon="-0.637525">
        <ele>543.35</ele>
        <time>2012-06-02T09:08:59Z</time>
      </trkpt>
      <trkpt lat="38.479494" lon="-0.636912">
        <ele>544.73</ele>
        <time>2012-06-02T09:09:44Z</time>
      </trkpt>
      <trkpt lat="38.480121" lon="-0.636383">
        <ele>547.12</ele>
        <time>2012-06-02T09:10:39Z</time>
      </trkpt>
      <trkpt lat="38.480851" lon="-0.636033">
        <ele>549.51</ele>
        <time>2012-06-02T09:11:35Z</time>
      </trkpt>
      <trkpt lat="38.481858" lon="-0.635883">
        <ele>551.99</ele>
        <time>2012-06-02T09:12:47Z</time>
      </trkpt>
      <trkpt lat="38.482648" lon="-0.635552">
        <ele>553.48</ele>
        <time>2012-06-02T09:13:47Z</time>
      </trkpt>
      <trkpt lat="38.483359" lon="-0.634844">
        <ele>554.86</ele>
        <time>2012-06-02T09:14:53Z</time>
      </trkpt>
      <trkpt lat="38.483955" lon="-0.633553">
        <ele>559.67</ele>
        <time>2012-06-02T09:16:23Z</time>
      </trkpt>
      <trkpt lat="38.484001" lon="-0.632354">
        <ele>561.63</ele>
        <time>2012-06-02T09:17:45Z</time>
      </trkpt>
      <trkpt lat="38.483038" lon="-0.628997">
        <ele>568.82</ele>
        <time>2012-06-02T09:21:27Z</time>
      </trkpt>
      <trkpt lat="38.483024" lon="-0.628003">
        <ele>569.78</ele>
        <time>2012-06-02T09:22:55Z</time>
      </trkpt>
      <trkpt lat="38.484953" lon="-0.618084">
        <ele>589.92</ele>
        <time>2012-06-02T09:32:56Z</time>
      </trkpt>
      <trkpt lat="38.485092" lon="-0.616597">
        <ele>593.90</ele>
        <time>2012-06-02T09:34:32Z</time>
      </trkpt>
      <trkpt lat="38.485468" lon="-0.615266">
        <ele>594.22</ele>
        <time>2012-06-02T09:35:51Z</time>
      </trkpt>
      <trkpt lat="38.486111" lon="-0.614429">
        <ele>596.21</ele>
        <time>2012-06-02T09:36:57Z</time>
      </trkpt>
      <trkpt lat="38.488422" lon="-0.612610">
        <ele>602.97</ele>
        <time>2012-06-02T09:40:24Z</time>
      </trkpt>
      <trkpt lat="38.494002" lon="-0.610551">
        <ele>605.31</ele>
        <time>2012-06-02T09:47:14Z</time>
      </trkpt>
      <trkpt lat="38.495126" lon="-0.609871">
        <ele>605.87</ele>
        <time>2012-06-02T09:48:43Z</time>
      </trkpt>
      <trkpt lat="38.495592" lon="-0.609297">
        <ele>605.39</ele>
        <time>2012-06-02T09:49:29Z</time>
      </trkpt>
      <trkpt lat="38.498698" lon="-0.604138">
        <ele>605.36</ele>
        <time>2012-06-02T09:55:31Z</time>
      </trkpt>
      <trkpt lat="38.499327" lon="-0.603803">
        <ele>612.08</ele>
        <time>2012-06-02T09:56:27Z</time>
      </trkpt>
      <trkpt lat="38.500359" lon="-0.602949">
        <ele>617.37</ele>
        <time>2012-06-02T09:58:03Z</time>
      </trkpt>
      <trkpt lat="38.500390" lon="-0.602908">
        <ele>623.36</ele>
        <time>2019-04-22T01:07:29Z</time>
      </trkpt>
      <trkpt lat="38.500596" lon="-0.602693">
        <ele>623.59</ele>
        <time>2019-04-22T01:08:09Z</time>
      </trkpt>
      <trkpt lat="38.500629" lon="-0.602626">
        <ele>623.29</ele>
        <time>2019-04-22T01:08:29Z</time>
      </trkpt>
      <trkpt lat="38.500599" lon="-0.602487">
        <ele>621.48</ele>
        <time>2019-04-22T01:08:49Z</time>
      </trkpt>
      <trkpt lat="38.500708" lon="-0.602298">
        <ele>622.38</ele>
        <time>2019-04-22T01:09:09Z</time>
      </trkpt>
      <trkpt lat="38.500842" lon="-0.602272">
        <ele>624.08</ele>
        <time>2019-04-22T01:09:29Z</time>
      </trkpt>
      <trkpt lat="38.500935" lon="-0.602360">
        <ele>624.72</ele>
        <time>2019-04-22T01:09:49Z</time>
      </trkpt>
      <trkpt lat="38.500977" lon="-0.602504">
        <ele>625.67</ele>
        <time>2019-04-22T01:10:09Z</time>
      </trkpt>
      <trkpt lat="38.500944" lon="-0.602671">
        <ele>626.82</ele>
        <time>2019-04-22T01:10:29Z</time>
      </trkpt>
      <trkpt lat="38.500863" lon="-0.602770">
        <ele>627.20</ele>
        <time>2019-04-22T01:10:49Z</time>
      </trkpt>
      <trkpt lat="38.500668" lon="-0.603333">
        <ele>628.62</ele>
        <time>2019-04-22T01:11:09Z</time>
      </trkpt>
      <trkpt lat="38.500505" lon="-0.603766">
        <ele>627.61</ele>
        <time>2019-04-22T01:11:29Z</time>
      </trkpt>
      <trkpt lat="38.500398" lon="-0.604085">
        <ele>632.37</ele>
        <time>2019-04-22T01:11:49Z</time>
      </trkpt>
      <trkpt lat="38.500406" lon="-0.604320">
        <ele>637.74</ele>
        <time>2019-04-22T01:12:09Z</time>
      </trkpt>
      <trkpt lat="38.500505" lon="-0.604204">
        <ele>635.76</ele>
        <time>2019-04-22T01:12:29Z</time>
      </trkpt>
      <trkpt lat="38.500595" lon="-0.603937">
        <ele>630.73</ele>
        <time>2019-04-22T01:12:49Z</time>
      </trkpt>
      <trkpt lat="38.500954" lon="-0.603569">
        <ele>634.96</ele>
        <time>2019-04-22T01:13:09Z</time>
      </trkpt>
      <trkpt lat="38.501341" lon="-0.603233">
        <ele>641.22</ele>
        <time>2019-04-22T01:13:29Z</time>
      </trkpt>
      <trkpt lat="38.501691" lon="-0.602921">
        <ele>638.10</ele>
        <time>2019-04-22T01:13:49Z</time>
      </trkpt>
      <trkpt lat="38.501837" lon="-0.602788">
        <ele>636.74</ele>
        <time>2019-04-22T01:14:09Z</time>
      </trkpt>
      <trkpt lat="38.502186" lon="-0.602468">
        <ele>636.95</ele>
        <time>2019-04-22T01:14:29Z</time>
      </trkpt>
      <trkpt lat="38.503217" lon="-0.601593">
        <ele>646.10</ele>
        <time>2019-04-22T01:14:49Z</time>
      </trkpt>
      <trkpt lat="38.503217" lon="-0.601593">
        <ele>646.12</ele>
        <time>2019-04-22T01:15:09Z</time>
      </trkpt>
      <trkpt lat="38.503867" lon="-0.600984">
        <ele>641.81</ele>
        <time>2019-04-22T01:15:29Z</time>
      </trkpt>
      <trkpt lat="38.504052" lon="-0.600882">
        <ele>642.58</ele>
        <time>2019-04-22T01:15:49Z</time>
      </trkpt>
      <trkpt lat="38.504610" lon="-0.600990">
        <ele>642.48</ele>
        <time>2019-04-22T01:16:09Z</time>
      </trkpt>
      <trkpt lat="38.505946" lon="-0.601552">
        <ele>641.43</ele>
        <time>2019-04-22T01:16:29Z</time>
      </trkpt>
      <trkpt lat="38.506798" lon="-0.602030">
        <ele>651.33</ele>
        <time>2019-04-22T01:16:49Z</time>
      </trkpt>
      <trkpt lat="38.507344" lon="-0.602089">
        <ele>644.80</ele>
        <time>2019-04-22T01:17:09Z</time>
      </trkpt>
      <trkpt lat="38.507599" lon="-0.602189">
        <ele>644.19</ele>
        <time>2019-04-22T01:17:29Z</time>
      </trkpt>
      <trkpt lat="38.508066" lon="-0.602565">
        <ele>650.55</ele>
        <time>2019-04-22T01:17:49Z</time>
      </trkpt>
      <trkpt lat="38.508699" lon="-0.602980">
        <ele>644.54</ele>
        <time>2019-04-22T01:18:09Z</time>
      </trkpt>
      <trkpt lat="38.509080" lon="-0.603416">
        <ele>650.51</ele>
        <time>2019-04-22T01:18:29Z</time>
      </trkpt>
      <trkpt lat="38.509297" lon="-0.603559">
        <ele>654.97</ele>
        <time>2019-04-22T01:18:49Z</time>
      </trkpt>
      <trkpt lat="38.509529" lon="-0.603485">
        <ele>654.51</ele>
        <time>2019-04-22T01:19:09Z</time>
      </trkpt>
      <trkpt lat="38.509655" lon="-0.603169">
        <ele>652.41</ele>
        <time>2019-04-22T01:19:29Z</time>
      </trkpt>
      <trkpt lat="38.509715" lon="-0.602814">
        <ele>651.94</ele>
        <time>2019-04-22T01:19:49Z</time>
      </trkpt>
      <trkpt lat="38.509852" lon="-0.602262">
        <ele>652.05</ele>
        <time>2019-04-22T01:20:09Z</time>
      </trkpt>
      <trkpt lat="38.510159" lon="-0.602128">
        <ele>657.49</ele>
        <time>2019-04-22T01:20:29Z</time>
      </trkpt>
      <trkpt lat="38.510606" lon="-0.602225">
        <ele>660.93</ele>
        <time>2019-04-22T01:20:49Z</time>
      </trkpt>
      <trkpt lat="38.510976" lon="-0.602421">
        <ele>656.19</ele>
        <time>2019-04-22T01:21:09Z</time>
      </trkpt>
      <trkpt lat="38.511220" lon="-0.602763">
        <ele>661.67</ele>
        <time>2019-04-22T01:21:29Z</time>
      </trkpt>
      <trkpt lat="38.511283" lon="-0.603165">
        <ele>663.00</ele>
        <time>2019-04-22T01:21:49Z</time>
      </trkpt>
      <trkpt lat="38.511180" lon="-0.603687">
        <ele>661.49</ele>
        <time>2019-04-22T01:22:09Z</time>
      </trkpt>
      <trkpt lat="38.511056" lon="-0.604239">
        <ele>664.24</ele>
        <time>2019-04-22T01:22:29Z</time>
      </trkpt>
      <trkpt lat="38.511056" lon="-0.604643">
        <ele>665.70</ele>
        <time>2019-04-22T01:22:49Z</time>
      </trkpt>
      <trkpt lat="38.511322" lon="-0.605003">
        <ele>662.82</ele>
        <time>2019-04-22T01:23:09Z</time>
      </trkpt>
      <trkpt lat="38.511681" lon="-0.605385">
        <ele>665.61</ele>
        <time>2019-04-22T01:23:29Z</time>
      </trkpt>
      <trkpt lat="38.511822" lon="-0.605607">
        <ele>665.95</ele>
        <time>2019-04-22T01:23:49Z</time>
      </trkpt>
      <trkpt lat="38.512220" lon="-0.606260">
        <ele>669.67</ele>
        <time>2019-04-22T01:24:09Z</time>
      </trkpt>
      <trkpt lat="38.512794" lon="-0.606772">
        <ele>669.76</ele>
        <time>2019-04-22T01:24:29Z</time>
      </trkpt>
      <trkpt lat="38.513382" lon="-0.607299">
        <ele>664.67</ele>
        <time>2019-04-22T01:24:49Z</time>
      </trkpt>
      <trkpt lat="38.514257" lon="-0.608668">
        <ele>655.16</ele>
        <time>2019-04-22T01:25:09Z</time>
      </trkpt>
      <trkpt lat="38.514830" lon="-0.609483">
        <ele>650.75</ele>
        <time>2019-04-22T01:25:29Z</time>
      </trkpt>
      <trkpt lat="38.515575" lon="-0.610028">
        <ele>645.15</ele>
        <time>2019-04-22T01:25:49Z</time>
      </trkpt>
      <trkpt lat="38.516041" lon="-0.610499">
        <ele>644.23</ele>
        <time>2019-04-22T01:26:09Z</time>
      </trkpt>
      <trkpt lat="38.516552" lon="-0.611241">
        <ele>644.39</ele>
        <time>2019-04-22T01:26:29Z</time>
      </trkpt>
      <trkpt lat="38.517061" lon="-0.612317">
        <ele>641.34</ele>
        <time>2019-04-22T01:26:49Z</time>
      </trkpt>
      <trkpt lat="38.517480" lon="-0.613166">
        <ele>636.83</ele>
        <time>2019-04-22T01:27:09Z</time>
      </trkpt>
      <trkpt lat="38.517992" lon="-0.614142">
        <ele>636.11</ele>
        <time>2019-04-22T01:27:29Z</time>
      </trkpt>
      <trkpt lat="38.518748" lon="-0.615032">
        <ele>635.15</ele>
        <time>2019-04-22T01:27:49Z</time>
      </trkpt>
      <trkpt lat="38.519633" lon="-0.615844">
        <ele>634.19</ele>
        <time>2019-04-22T01:28:09Z</time>
      </trkpt>
      <trkpt lat="38.520685" lon="-0.616496">
        <ele>632.91</ele>
        <time>2019-04-22T01:28:29Z</time>
      </trkpt>
      <trkpt lat="38.521613" lon="-0.617504">
        <ele>632.63</ele>
        <time>2019-04-22T01:28:49Z</time>
      </trkpt>
      <trkpt lat="38.522191" lon="-0.617871">
        <ele>634.02</ele>
        <time>2019-04-22T01:29:09Z</time>
      </trkpt>
      <trkpt lat="38.522929" lon="-0.618050">
        <ele>634.96</ele>
        <time>2019-04-22T01:29:29Z</time>
      </trkpt>
      <trkpt lat="38.524013" lon="-0.618484">
        <ele>629.02</ele>
        <time>2019-04-22T01:29:49Z</time>
      </trkpt>
      <trkpt lat="38.524903" lon="-0.618836">
        <ele>625.43</ele>
        <time>2019-04-22T01:30:09Z</time>
      </trkpt>
      <trkpt lat="38.525190" lon="-0.618956">
        <ele>625.09</ele>
        <time>2019-04-22T01:30:29Z</time>
      </trkpt>
      <trkpt lat="38.525897" lon="-0.619814">
        <ele>625.08</ele>
        <time>2019-04-22T01:30:49Z</time>
      </trkpt>
      <trkpt lat="38.526853" lon="-0.620946">
        <ele>620.62</ele>
        <time>2019-04-22T01:31:09Z</time>
      </trkpt>
      <trkpt lat="38.527579" lon="-0.621294">
        <ele>622.01</ele>
        <time>2019-04-22T01:31:29Z</time>
      </trkpt>
      <trkpt lat="38.528746" lon="-0.621000">
        <ele>620.99</ele>
        <time>2019-04-22T01:31:49Z</time>
      </trkpt>
      <trkpt lat="38.529444" lon="-0.621116">
        <ele>623.12</ele>
        <time>2019-04-22T01:32:09Z</time>
      </trkpt>
      <trkpt lat="38.529773" lon="-0.621358">
        <ele>625.67</ele>
        <time>2019-04-22T01:32:29Z</time>
      </trkpt>
      <trkpt lat="38.530310" lon="-0.622050">
        <ele>630.72</ele>
        <time>2019-04-22T01:32:49Z</time>
      </trkpt>
      <trkpt lat="38.530845" lon="-0.622810">
        <ele>631.19</ele>
        <time>2019-04-22T01:33:09Z</time>
      </trkpt>
      <trkpt lat="38.532089" lon="-0.623530">
        <ele>633.35</ele>
        <time>2019-04-22T01:33:29Z</time>
      </trkpt>
      <trkpt lat="38.533392" lon="-0.624283">
        <ele>635.06</ele>
        <time>2019-04-22T01:33:49Z</time>
      </trkpt>
      <trkpt lat="38.534315" lon="-0.624841">
        <ele>639.34</ele>
        <time>2019-04-22T01:34:09Z</time>
      </trkpt>
      <trkpt lat="38.534815" lon="-0.625196">
        <ele>641.14</ele>
        <time>2019-04-22T01:34:29Z</time>
      </trkpt>
      <trkpt lat="38.534966" lon="-0.625169">
        <ele>642.08</ele>
        <time>2019-04-22T01:34:49Z</time>
      </trkpt>
      <trkpt lat="38.535137" lon="-0.624637">
        <ele>637.51</ele>
        <time>2019-04-22T01:35:09Z</time>
      </trkpt>
      <trkpt lat="38.535402" lon="-0.624352">
        <ele>637.41</ele>
        <time>2019-04-22T01:35:29Z</time>
      </trkpt>
      <trkpt lat="38.535853" lon="-0.624518">
        <ele>639.57</ele>
        <time>2019-04-22T01:35:49Z</time>
      </trkpt>
      <trkpt lat="38.536311" lon="-0.624875">
        <ele>636.05</ele>
        <time>2019-04-22T01:36:09Z</time>
      </trkpt>
      <trkpt lat="38.536498" lon="-0.625288">
        <ele>638.44</ele>
        <time>2019-04-22T01:36:29Z</time>
      </trkpt>
      <trkpt lat="38.537177" lon="-0.625503">
        <ele>640.73</ele>
        <time>2019-04-22T01:36:49Z</time>
      </trkpt>
      <trkpt lat="38.537425" lon="-0.625757">
        <ele>642.87</ele>
        <time>2019-04-22T01:37:09Z</time>
      </trkpt>
      <trkpt lat="38.537742" lon="-0.626436">
        <ele>642.68</ele>
        <time>2019-04-22T01:37:29Z</time>
      </trkpt>
      <trkpt lat="38.538393" lon="-0.626941">
        <ele>640.39</ele>
        <time>2019-04-22T01:37:49Z</time>
      </trkpt>
      <trkpt lat="38.538578" lon="-0.627093">
        <ele>640.48</ele>
        <time>2019-04-22T01:38:09Z</time>
      </trkpt>
      <trkpt lat="38.538774" lon="-0.627621">
        <ele>642.20</ele>
        <time>2019-04-22T01:38:29Z</time>
      </trkpt>
      <trkpt lat="38.539298" lon="-0.628172">
        <ele>637.61</ele>
        <time>2019-04-22T01:38:49Z</time>
      </trkpt>
      <trkpt lat="38.539512" lon="-0.628606">
        <ele>634.03</ele>
        <time>2019-04-22T01:39:09Z</time>
      </trkpt>
      <trkpt lat="38.539400" lon="-0.629357">
        <ele>632.91</ele>
        <time>2019-04-22T01:39:29Z</time>
      </trkpt>
      <trkpt lat="38.539984" lon="-0.629670">
        <ele>629.02</ele>
        <time>2019-04-22T01:39:49Z</time>
      </trkpt>
      <trkpt lat="38.540588" lon="-0.630316">
        <ele>626.25</ele>
        <time>2019-04-22T01:40:09Z</time>
      </trkpt>
      <trkpt lat="38.541812" lon="-0.630796">
        <ele>627.14</ele>
        <time>2019-04-22T01:40:29Z</time>
      </trkpt>
      <trkpt lat="38.542597" lon="-0.631544">
        <ele>622.48</ele>
        <time>2019-04-22T01:40:49Z</time>
      </trkpt>
      <trkpt lat="38.544018" lon="-0.632603">
        <ele>624.45</ele>
        <time>2019-04-22T01:41:09Z</time>
      </trkpt>
      <trkpt lat="38.545165" lon="-0.633458">
        <ele>626.65</ele>
        <time>2019-04-22T01:41:29Z</time>
      </trkpt>
      <trkpt lat="38.546287" lon="-0.634303">
        <ele>624.21</ele>
        <time>2019-04-22T01:41:49Z</time>
      </trkpt>
      <trkpt lat="38.548139" lon="-0.635697">
        <ele>624.25</ele>
        <time>2019-04-22T01:42:09Z</time>
      </trkpt>
      <trkpt lat="38.549345" lon="-0.636621">
        <ele>620.82</ele>
        <time>2019-04-22T01:42:29Z</time>
      </trkpt>
      <trkpt lat="38.551082" lon="-0.637930">
        <ele>617.08</ele>
        <time>2019-04-22T01:42:49Z</time>
      </trkpt>
      <trkpt lat="38.552550" lon="-0.638681">
        <ele>612.61</ele>
        <time>2019-04-22T01:43:09Z</time>
      </trkpt>
      <trkpt lat="38.553453" lon="-0.638702">
        <ele>612.71</ele>
        <time>2019-04-22T01:43:29Z</time>
      </trkpt>
      <trkpt lat="38.554650" lon="-0.637518">
        <ele>605.25</ele>
        <time>2019-04-22T01:43:49Z</time>
      </trkpt>
      <trkpt lat="38.554832" lon="-0.636463">
        <ele>602.14</ele>
        <time>2019-04-22T01:44:09Z</time>
      </trkpt>
      <trkpt lat="38.555140" lon="-0.635694">
        <ele>600.05</ele>
        <time>2019-04-22T01:44:29Z</time>
      </trkpt>
      <trkpt lat="38.556342" lon="-0.635283">
        <ele>594.29</ele>
        <time>2019-04-22T01:44:49Z</time>
      </trkpt>
      <trkpt lat="38.557908" lon="-0.636106">
        <ele>585.01</ele>
        <time>2019-04-22T01:45:09Z</time>
      </trkpt>
      <trkpt lat="38.559779" lon="-0.635966">
        <ele>572.91</ele>
        <time>2019-04-22T01:45:29Z</time>
      </trkpt>
      <trkpt lat="38.561340" lon="-0.637268">
        <ele>589.54</ele>
        <time>2019-04-22T01:45:49Z</time>
      </trkpt>
      <trkpt lat="38.562081" lon="-0.637679">
        <ele>599.17</ele>
        <time>2019-04-22T01:46:09Z</time>
      </trkpt>
      <trkpt lat="38.563353" lon="-0.637178">
        <ele>604.43</ele>
        <time>2019-04-22T01:46:29Z</time>
      </trkpt>
      <trkpt lat="38.565003" lon="-0.638874">
        <ele>606.17</ele>
        <time>2019-04-22T01:46:49Z</time>
      </trkpt>
      <trkpt lat="38.566415" lon="-0.640876">
        <ele>608.21</ele>
        <time>2019-04-22T01:47:09Z</time>
      </trkpt>
      <trkpt lat="38.567771" lon="-0.643040">
        <ele>613.11</ele>
        <time>2019-04-22T01:47:29Z</time>
      </trkpt>
      <trkpt lat="38.569192" lon="-0.644885">
        <ele>619.67</ele>
        <time>2019-04-22T01:47:49Z</time>
      </trkpt>
      <trkpt lat="38.570729" lon="-0.646441">
        <ele>620.86</ele>
        <time>2019-04-22T01:48:09Z</time>
      </trkpt>
      <trkpt lat="38.572365" lon="-0.648122">
        <ele>633.94</ele>
        <time>2019-04-22T01:48:29Z</time>
      </trkpt>
      <trkpt lat="38.572826" lon="-0.650035">
        <ele>643.57</ele>
        <time>2019-04-22T01:48:49Z</time>
      </trkpt>
      <trkpt lat="38.573861" lon="-0.650929">
        <ele>648.76</ele>
        <time>2019-04-22T01:49:09Z</time>
      </trkpt>
      <trkpt lat="38.575021" lon="-0.651809">
        <ele>650.08</ele>
        <time>2019-04-22T01:49:29Z</time>
      </trkpt>
      <trkpt lat="38.575389" lon="-0.651780">
        <ele>649.70</ele>
        <time>2019-04-22T01:49:49Z</time>
      </trkpt>
      <trkpt lat="38.575648" lon="-0.652089">
        <ele>648.17</ele>
        <time>2019-04-22T01:50:09Z</time>
      </trkpt>
      <trkpt lat="38.575750" lon="-0.652187">
        <ele>647.42</ele>
        <time>2019-04-22T01:50:29Z</time>
      </trkpt>
      <trkpt lat="38.576074" lon="-0.652248">
        <ele>647.30</ele>
        <time>2019-04-22T01:50:49Z</time>
      </trkpt>
      <trkpt lat="38.576266" lon="-0.652429">
        <ele>649.22</ele>
        <time>2019-04-22T01:51:09Z</time>
      </trkpt>
      <trkpt lat="38.576340" lon="-0.652890">
        <ele>650.91</ele>
        <time>2019-04-22T01:51:29Z</time>
      </trkpt>
      <trkpt lat="38.576226" lon="-0.653189">
        <ele>650.78</ele>
        <time>2019-04-22T01:51:49Z</time>
      </trkpt>
      <trkpt lat="38.576275" lon="-0.653529">
        <ele>652.04</ele>
        <time>2019-04-22T01:52:09Z</time>
      </trkpt>
      <trkpt lat="38.576511" lon="-0.653743">
        <ele>654.02</ele>
        <time>2019-04-22T01:52:29Z</time>
      </trkpt>
      <trkpt lat="38.576511" lon="-0.653743">
        <ele>654.02</ele>
        <time>2019-04-22T01:52:49Z</time>
      </trkpt>
      <trkpt lat="38.576971" lon="-0.653886">
        <ele>655.28</ele>
        <time>2019-04-22T01:53:09Z</time>
      </trkpt>
      <trkpt lat="38.577471" lon="-0.654020">
        <ele>655.55</ele>
        <time>2019-04-22T01:53:29Z</time>
      </trkpt>
      <trkpt lat="38.577681" lon="-0.654137">
        <ele>655.86</ele>
        <time>2019-04-22T01:53:49Z</time>
      </trkpt>
      <trkpt lat="38.578034" lon="-0.654325">
        <ele>657.17</ele>
        <time>2019-04-22T01:54:09Z</time>
      </trkpt>
      <trkpt lat="38.578196" lon="-0.654616">
        <ele>658.41</ele>
        <time>2019-04-22T01:54:29Z</time>
      </trkpt>
      <trkpt lat="38.578397" lon="-0.654779">
        <ele>658.33</ele>
        <time>2019-04-22T01:54:49Z</time>
      </trkpt>
      <trkpt lat="38.578831" lon="-0.655154">
        <ele>656.80</ele>
        <time>2019-04-22T01:55:09Z</time>
      </trkpt>
      <trkpt lat="38.579196" lon="-0.655462">
        <ele>654.21</ele>
        <time>2019-04-22T01:55:29Z</time>
      </trkpt>
      <trkpt lat="38.579734" lon="-0.655920">
        <ele>652.65</ele>
        <time>2019-04-22T01:55:49Z</time>
      </trkpt>
      <trkpt lat="38.580351" lon="-0.656438">
        <ele>655.92</ele>
        <time>2019-04-22T01:56:09Z</time>
      </trkpt>
      <trkpt lat="38.580929" lon="-0.656933">
        <ele>654.44</ele>
        <time>2019-04-22T01:56:29Z</time>
      </trkpt>
      <trkpt lat="38.581927" lon="-0.657789">
        <ele>661.10</ele>
        <time>2019-04-22T01:56:49Z</time>
      </trkpt>
      <trkpt lat="38.582727" lon="-0.658479">
        <ele>662.39</ele>
        <time>2019-04-22T01:57:09Z</time>
      </trkpt>
      <trkpt lat="38.583584" lon="-0.659209">
        <ele>662.10</ele>
        <time>2019-04-22T01:57:29Z</time>
      </trkpt>
      <trkpt lat="38.585380" lon="-0.660718">
        <ele>665.78</ele>
        <time>2019-04-22T01:57:49Z</time>
      </trkpt>
      <trkpt lat="38.587074" lon="-0.662223">
        <ele>662.56</ele>
        <time>2019-04-22T01:58:09Z</time>
      </trkpt>
      <trkpt lat="38.588823" lon="-0.663725">
        <ele>662.55</ele>
        <time>2019-04-22T01:58:29Z</time>
      </trkpt>
      <trkpt lat="38.590573" lon="-0.665173">
        <ele>664.05</ele>
        <time>2019-04-22T01:58:49Z</time>
      </trkpt>
      <trkpt lat="38.598390" lon="-0.663646">
        <ele>650.597</ele>
        <time>2018-05-12T13:44:05Z</time>
      </trkpt>
      <trkpt lat="38.597684" lon="-0.665001">
        <ele>654.323</ele>
        <time>2018-05-12T13:44:58Z</time>
      </trkpt>
      <trkpt lat="38.597137" lon="-0.666496">
        <ele>659.125</ele>
        <time>2018-05-12T13:45:44Z</time>
      </trkpt>
      <trkpt lat="38.597761" lon="-0.667040">
        <ele>659.108</ele>
        <time>2018-05-12T13:46:10Z</time>
      </trkpt>
      <trkpt lat="38.596426" lon="-0.669863">
        <ele>669.282</ele>
        <time>2018-05-12T13:47:43Z</time>
      </trkpt>
      <trkpt lat="38.596618" lon="-0.669942">
        <ele>669.264</ele>
        <time>2018-05-12T13:47:57Z</time>
      </trkpt>
      <trkpt lat="38.596402" lon="-0.669870">
        <ele>669.234</ele>
        <time>2018-05-12T13:48:16Z</time>
      </trkpt>
      <trkpt lat="38.597710" lon="-0.670469">
        <ele>672.797</ele>
        <time>2018-05-12T13:49:58Z</time>
      </trkpt>
      <trkpt lat="38.596516" lon="-0.670742">
        <ele>678.351</ele>
        <time>2018-05-12T13:51:01Z</time>
      </trkpt>
      <trkpt lat="38.595419" lon="-0.671701">
        <ele>677.461</ele>
        <time>2018-05-12T13:52:46Z</time>
      </trkpt>
      <trkpt lat="38.595127" lon="-0.672130">
        <ele>678.412</ele>
        <time>2018-05-12T13:53:46Z</time>
      </trkpt>
      <trkpt lat="38.594234" lon="-0.672255">
        <ele>678.826</ele>
        <time>2018-05-12T13:58:58Z</time>
      </trkpt>
      <trkpt lat="38.594291" lon="-0.672336">
        <ele>679.363</ele>
        <time>2018-05-12T14:00:31Z</time>
      </trkpt>
      <trkpt lat="38.594264" lon="-0.672086">
        <ele>692.344</ele>
        <time>2018-05-12T14:13:39Z</time>
      </trkpt>
      <trkpt lat="38.594085" lon="-0.672066">
        <ele>696.618</ele>
        <time>2018-05-12T14:15:33Z</time>
      </trkpt>
      <trkpt lat="38.594317" lon="-0.672034">
        <ele>702.408</ele>
        <time>2018-05-12T14:20:08Z</time>
      </trkpt>
      <trkpt lat="38.593955" lon="-0.672813">
        <ele>708.649</ele>
        <time>2018-05-12T14:25:37Z</time>
      </trkpt>
      <trkpt lat="38.594244" lon="-0.672869">
        <ele>709.641</ele>
        <time>2018-05-12T14:27:21Z</time>
      </trkpt>
      <trkpt lat="38.594200" lon="-0.673083">
        <ele>710.551</ele>
        <time>2018-05-12T14:31:55Z</time>
      </trkpt>
      <trkpt lat="38.594277" lon="-0.672864">
        <ele>710.594</ele>
        <time>2018-05-12T14:34:47Z</time>
      </trkpt>
      <trkpt lat="38.594672" lon="-0.672903">
        <ele>712.078</ele>
        <time>2018-05-12T14:36:32Z</time>
      </trkpt>
      <trkpt lat="38.594495" lon="-0.673265">
        <ele>711.058</ele>
        <time>2018-05-12T14:36:56Z</time>
      </trkpt>
      <trkpt lat="38.598109" lon="-0.677066">
        <ele>726.479</ele>
        <time>2018-05-12T14:41:18Z</time>
      </trkpt>
      <trkpt lat="38.598922" lon="-0.680263">
        <ele>719.253</ele>
        <time>2018-05-12T14:42:27Z</time>
      </trkpt>
      <trkpt lat="38.600342" lon="-0.684047">
        <ele>723.538</ele>
        <time>2018-05-12T14:44:36Z</time>
      </trkpt>
      <trkpt lat="38.600734" lon="-0.684265">
        <ele>722.670</ele>
        <time>2018-05-12T14:44:54Z</time>
      </trkpt>
      <trkpt lat="38.600736" lon="-0.684547">
        <ele>724.017</ele>
        <time>2018-05-12T14:45:06Z</time>
      </trkpt>
      <trkpt lat="38.600991" lon="-0.684635">
        <ele>724.008</ele>
        <time>2018-05-12T14:45:20Z</time>
      </trkpt>
      <trkpt lat="38.600772" lon="-0.685339">
        <ele>725.556</ele>
        <time>2018-05-12T14:45:50Z</time>
      </trkpt>
      <trkpt lat="38.601160" lon="-0.687374">
        <ele>723.558</ele>
        <time>2018-05-12T14:46:35Z</time>
      </trkpt>
      <trkpt lat="38.601407" lon="-0.690373">
        <ele>713.468</ele>
        <time>2018-05-12T14:47:21Z</time>
      </trkpt>
      <trkpt lat="38.602477" lon="-0.693611">
        <ele>708.691</ele>
        <time>2018-05-12T14:48:03Z</time>
      </trkpt>
      <trkpt lat="38.603719" lon="-0.699177">
        <ele>706.735</ele>
        <time>2018-05-12T14:49:44Z</time>
      </trkpt>
      <trkpt lat="38.604400" lon="-0.701031">
        <ele>700.095</ele>
        <time>2018-05-12T14:50:10Z</time>
      </trkpt>
      <trkpt lat="38.605487" lon="-0.706539">
        <ele>702.436</ele>
        <time>2018-05-12T14:51:59Z</time>
      </trkpt>
      <trkpt lat="38.606170" lon="-0.707617">
        <ele>706.780</ele>
        <time>2018-05-12T14:52:44Z</time>
      </trkpt>
      <trkpt lat="38.608168" lon="-0.708717">
        <ele>696.195</ele>
        <time>2018-05-12T14:54:14Z</time>
      </trkpt>
      <trkpt lat="38.608022" lon="-0.709695">
        <ele>696.649</ele>
        <time>2018-05-12T14:55:04Z</time>
      </trkpt>
      <trkpt lat="38.607467" lon="-0.710633">
        <ele>697.123</ele>
        <time>2018-05-12T14:56:30Z</time>
      </trkpt>
      <trkpt lat="38.607356" lon="-0.712837">
        <ele>702.408</ele>
        <time>2018-05-12T14:57:37Z</time>
      </trkpt>
      <trkpt lat="38.609640" lon="-0.714631">
        <ele>721.112</ele>
        <time>2018-05-12T15:00:25Z</time>
      </trkpt>
      <trkpt lat="38.608989" lon="-0.716650">
        <ele>717.834</ele>
        <time>2018-05-12T15:01:09Z</time>
      </trkpt>
      <trkpt lat="38.608712" lon="-0.718541">
        <ele>722.214</ele>
        <time>2018-05-12T15:01:58Z</time>
      </trkpt>
      <trkpt lat="38.608190" lon="-0.719848">
        <ele>724.047</ele>
        <time>2018-05-12T15:02:32Z</time>
      </trkpt>
      <trkpt lat="38.607941" lon="-0.721353">
        <ele>729.391</ele>
        <time>2018-05-12T15:03:24Z</time>
      </trkpt>
      <trkpt lat="38.608003" lon="-0.721814">
        <ele>729.321</ele>
        <time>2018-05-12T15:03:39Z</time>
      </trkpt>
      <trkpt lat="38.607755" lon="-0.722630">
        <ele>732.222</ele>
        <time>2018-05-12T15:04:06Z</time>
      </trkpt>
      <trkpt lat="38.607855" lon="-0.723430">
        <ele>737.546</ele>
        <time>2018-05-12T15:04:37Z</time>
      </trkpt>
      <trkpt lat="38.608567" lon="-0.724910">
        <ele>748.051</ele>
        <time>2018-05-12T15:05:43Z</time>
      </trkpt>
      <trkpt lat="38.610422" lon="-0.726825">
        <ele>762.001</ele>
        <time>2018-05-12T15:07:39Z</time>
      </trkpt>
      <trkpt lat="38.610966" lon="-0.728342">
        <ele>766.811</ele>
        <time>2018-05-12T15:08:39Z</time>
      </trkpt>
      <trkpt lat="38.610594" lon="-0.730212">
        <ele>773.008</ele>
        <time>2018-05-12T15:09:42Z</time>
      </trkpt>
      <trkpt lat="38.610950" lon="-0.731316">
        <ele>774.568</ele>
        <time>2018-05-12T15:10:12Z</time>
      </trkpt>
      <trkpt lat="38.611414" lon="-0.731828">
        <ele>775.460</ele>
        <time>2018-05-12T15:10:31Z</time>
      </trkpt>
      <trkpt lat="38.612052" lon="-0.732987">
        <ele>778.310</ele>
        <time>2018-05-12T15:11:07Z</time>
      </trkpt>
      <trkpt lat="38.612710" lon="-0.734653">
        <ele>785.073</ele>
        <time>2018-05-12T15:12:04Z</time>
      </trkpt>
      <trkpt lat="38.613300" lon="-0.737652">
        <ele>796.667</ele>
        <time>2018-05-12T15:13:43Z</time>
      </trkpt>
      <trkpt lat="38.613950" lon="-0.738470">
        <ele>800.017</ele>
        <time>2018-05-12T15:14:18Z</time>
      </trkpt>
      <trkpt lat="38.615551" lon="-0.739978">
        <ele>809.638</ele>
        <time>2018-05-12T15:15:33Z</time>
      </trkpt>
      <trkpt lat="38.616361" lon="-0.741467">
        <ele>815.452</ele>
        <time>2018-05-12T15:16:29Z</time>
      </trkpt>
      <trkpt lat="38.618221" lon="-0.742923">
        <ele>821.114</ele>
        <time>2018-05-12T15:24:04Z</time>
      </trkpt>
      <trkpt lat="38.618055" lon="-0.742859">
        <ele>821.154</ele>
        <time>2018-05-12T15:28:53Z</time>
      </trkpt>
      <trkpt lat="38.619364" lon="-0.743148">
        <ele>814.809</ele>
        <time>2018-05-12T15:29:41Z</time>
      </trkpt>
      <trkpt lat="38.620710" lon="-0.745399">
        <ele>802.808</ele>
        <time>2018-05-12T15:30:06Z</time>
      </trkpt>
      <trkpt lat="38.621548" lon="-0.746408">
        <ele>796.154</ele>
        <time>2018-05-12T15:30:17Z</time>
      </trkpt>
      <trkpt lat="38.622298" lon="-0.746902">
        <ele>792.766</ele>
        <time>2018-05-12T15:30:25Z</time>
      </trkpt>
      <trkpt lat="38.623199" lon="-0.747955">
        <ele>785.076</ele>
        <time>2018-05-12T15:30:37Z</time>
      </trkpt>
      <trkpt lat="38.623599" lon="-0.750086">
        <ele>773.019</ele>
        <time>2018-05-12T15:30:54Z</time>
      </trkpt>
      <trkpt lat="38.623907" lon="-0.750630">
        <ele>768.243</ele>
        <time>2018-05-12T15:31:00Z</time>
      </trkpt>
      <trkpt lat="38.623944" lon="-0.751574">
        <ele>768.283</ele>
        <time>2018-05-12T15:31:10Z</time>
      </trkpt>
      <trkpt lat="38.624550" lon="-0.754197">
        <ele>761.014</ele>
        <time>2018-05-12T15:31:50Z</time>
      </trkpt>
      <trkpt lat="38.625618" lon="-0.753245">
        <ele>769.758</ele>
        <time>2018-05-12T15:33:31Z</time>
      </trkpt>
      <trkpt lat="38.627128" lon="-0.751053">
        <ele>778.349</ele>
        <time>2018-05-12T15:35:27Z</time>
      </trkpt>
      <trkpt lat="38.627535" lon="-0.751156">
        <ele>779.802</ele>
        <time>2018-05-12T15:35:53Z</time>
      </trkpt>
      <trkpt lat="38.627368" lon="-0.750980">
        <ele>736.022</ele>
        <time>2018-05-13T08:03:38Z</time>
      </trkpt>
      <trkpt lat="38.627049" lon="-0.751066">
        <ele>760.508</ele>
        <time>2018-05-13T08:03:58Z</time>
      </trkpt>
      <trkpt lat="38.627172" lon="-0.751474">
        <ele>769.247</ele>
        <time>2018-05-13T08:04:19Z</time>
      </trkpt>
      <trkpt lat="38.628282" lon="-0.751549">
        <ele>775.949</ele>
        <time>2018-05-13T08:05:01Z</time>
      </trkpt>
      <trkpt lat="38.629497" lon="-0.750951">
        <ele>763.449</ele>
        <time>2018-05-13T08:05:35Z</time>
      </trkpt>
      <trkpt lat="38.630098" lon="-0.751064">
        <ele>762.072</ele>
        <time>2018-05-13T08:05:53Z</time>
      </trkpt>
      <trkpt lat="38.630085" lon="-0.752135">
        <ele>753.326</ele>
        <time>2018-05-13T08:06:07Z</time>
      </trkpt>
      <trkpt lat="38.630292" lon="-0.752866">
        <ele>747.146</ele>
        <time>2018-05-13T08:06:53Z</time>
      </trkpt>
      <trkpt lat="38.631205" lon="-0.752945">
        <ele>736.147</ele>
        <time>2018-05-13T08:07:37Z</time>
      </trkpt>
      <trkpt lat="38.630497" lon="-0.754384">
        <ele>725.531</ele>
        <time>2018-05-13T08:08:01Z</time>
      </trkpt>
      <trkpt lat="38.630379" lon="-0.755327">
        <ele>720.762</ele>
        <time>2018-05-13T08:08:12Z</time>
      </trkpt>
      <trkpt lat="38.630502" lon="-0.758049">
        <ele>704.883</ele>
        <time>2018-05-13T08:08:48Z</time>
      </trkpt>
      <trkpt lat="38.629342" lon="-0.759566">
        <ele>706.211</ele>
        <time>2018-05-13T08:09:27Z</time>
      </trkpt>
      <trkpt lat="38.629197" lon="-0.759966">
        <ele>707.208</ele>
        <time>2018-05-13T08:09:38Z</time>
      </trkpt>
      <trkpt lat="38.629217" lon="-0.761367">
        <ele>699.569</ele>
        <time>2018-05-13T08:09:57Z</time>
      </trkpt>
      <trkpt lat="38.629813" lon="-0.762075">
        <ele>705.841</ele>
        <time>2018-05-13T08:22:06Z</time>
      </trkpt>
      <trkpt lat="38.629580" lon="-0.761631">
        <ele>711.521</ele>
        <time>2018-05-13T08:40:01Z</time>
      </trkpt>
      <trkpt lat="38.629954" lon="-0.761715">
        <ele>712.074</ele>
        <time>2018-05-13T08:42:12Z</time>
      </trkpt>
      <trkpt lat="38.630049" lon="-0.761411">
        <ele>707.798</ele>
        <time>2018-05-13T08:42:50Z</time>
      </trkpt>
      <trkpt lat="38.630251" lon="-0.761356">
        <ele>706.758</ele>
        <time>2018-05-13T08:42:56Z</time>
      </trkpt>
      <trkpt lat="38.630544" lon="-0.762409">
        <ele>704.899</ele>
        <time>2018-05-13T08:43:36Z</time>
      </trkpt>
      <trkpt lat="38.630836" lon="-0.762852">
        <ele>702.963</ele>
        <time>2018-05-13T08:43:46Z</time>
      </trkpt>
      <trkpt lat="38.632011" lon="-0.763634">
        <ele>702.486</ele>
        <time>2018-05-13T08:44:17Z</time>
      </trkpt>
      <trkpt lat="38.632199" lon="-0.764044">
        <ele>701.960</ele>
        <time>2018-05-13T08:44:31Z</time>
      </trkpt>
      <trkpt lat="38.632244" lon="-0.765582">
        <ele>701.426</ele>
        <time>2018-05-13T08:45:19Z</time>
      </trkpt>
      <trkpt lat="38.631629" lon="-0.767173">
        <ele>699.508</ele>
        <time>2018-05-13T08:46:14Z</time>
      </trkpt>
      <trkpt lat="38.631765" lon="-0.767272">
        <ele>696.691</ele>
        <time>2018-05-13T08:46:20Z</time>
      </trkpt>
      <trkpt lat="38.631905" lon="-0.767913">
        <ele>691.893</ele>
        <time>2018-05-13T08:46:33Z</time>
      </trkpt>
      <trkpt lat="38.632567" lon="-0.769114">
        <ele>684.123</ele>
        <time>2018-05-13T08:48:29Z</time>
      </trkpt>
      <trkpt lat="38.633584" lon="-0.770410">
        <ele>674.056</ele>
        <time>2018-05-13T08:48:51Z</time>
      </trkpt>
      <trkpt lat="38.634744" lon="-0.770866">
        <ele>665.460</ele>
        <time>2018-05-13T08:49:09Z</time>
      </trkpt>
      <trkpt lat="38.635184" lon="-0.771444">
        <ele>661.040</ele>
        <time>2018-05-13T08:49:17Z</time>
      </trkpt>
      <trkpt lat="38.636186" lon="-0.771610">
        <ele>654.891</ele>
        <time>2018-05-13T08:49:30Z</time>
      </trkpt>
      <trkpt lat="38.637354" lon="-0.772403">
        <ele>647.115</ele>
        <time>2018-05-13T08:49:47Z</time>
      </trkpt>
      <trkpt lat="38.638857" lon="-0.772939">
        <ele>640.925</ele>
        <time>2018-05-13T08:50:10Z</time>
      </trkpt>
      <trkpt lat="38.639826" lon="-0.773589">
        <ele>638.526</ele>
        <time>2018-05-13T08:50:33Z</time>
      </trkpt>
      <trkpt lat="38.641400" lon="-0.775121">
        <ele>631.708</ele>
        <time>2018-05-13T08:51:16Z</time>
      </trkpt>
      <trkpt lat="38.642968" lon="-0.772722">
        <ele>631.208</ele>
        <time>2018-05-13T08:52:22Z</time>
      </trkpt>
      <trkpt lat="38.643642" lon="-0.772160">
        <ele>630.865</ele>
        <time>2018-05-13T08:52:42Z</time>
      </trkpt>
      <trkpt lat="38.653869" lon="-0.767167">
        <ele>629.887</ele>
        <time>2018-05-13T08:57:15Z</time>
      </trkpt>
      <trkpt lat="38.701061" lon="-0.752956">
        <ele>601.087</ele>
        <time>2018-05-13T09:42:28Z</time>
      </trkpt>
      <trkpt lat="38.701479" lon="-0.752595">
        <ele>601.060</ele>
        <time>2018-05-13T09:43:00Z</time>
      </trkpt>
      <trkpt lat="38.701568" lon="-0.752288">
        <ele>601.024</ele>
        <time>2018-05-13T09:49:14Z</time>
      </trkpt>
      <trkpt lat="38.701636" lon="-0.752724">
        <ele>600.554</ele>
        <time>2018-05-13T09:50:11Z</time>
      </trkpt>
      <trkpt lat="38.702859" lon="-0.752527">
        <ele>600.015</ele>
        <time>2018-05-13T09:57:40Z</time>
      </trkpt>
      <trkpt lat="38.703778" lon="-0.752088">
        <ele>601.449</ele>
        <time>2018-05-13T10:00:20Z</time>
      </trkpt>
      <trkpt lat="38.704553" lon="-0.751361">
        <ele>603.444</ele>
        <time>2018-05-13T10:01:09Z</time>
      </trkpt>
      <trkpt lat="38.704858" lon="-0.750823">
        <ele>602.405</ele>
        <time>2018-05-13T10:01:52Z</time>
      </trkpt>
      <trkpt lat="38.704167" lon="-0.751770">
        <ele>601.015</ele>
        <time>2018-05-13T10:08:21Z</time>
      </trkpt>
      <trkpt lat="38.704298" lon="-0.751542">
        <ele>601.908</ele>
        <time>2018-05-13T10:09:02Z</time>
      </trkpt>
      <trkpt lat="38.704463" lon="-0.749828">
        <ele>601.937</ele>
        <time>2018-05-13T10:09:36Z</time>
      </trkpt>
      <trkpt lat="38.704383" lon="-0.749282">
        <ele>602.439</ele>
        <time>2018-05-13T10:09:46Z</time>
      </trkpt>
      <trkpt lat="38.704968" lon="-0.748139">
        <ele>603.499</ele>
        <time>2018-05-13T10:10:18Z</time>
      </trkpt>
      <trkpt lat="38.705124" lon="-0.748205">
        <ele>605.842</ele>
        <time>2018-05-13T10:10:26Z</time>
      </trkpt>
      <trkpt lat="38.705456" lon="-0.747645">
        <ele>606.256</ele>
        <time>2018-05-13T10:10:43Z</time>
      </trkpt>
      <trkpt lat="38.706373" lon="-0.744212">
        <ele>610.146</ele>
        <time>2018-05-13T10:12:05Z</time>
      </trkpt>
      <trkpt lat="38.712723" lon="-0.714473">
        <ele>642.867</ele>
        <time>2018-05-13T10:24:00Z</time>
      </trkpt>
      <trkpt lat="38.717700" lon="-0.675364">
        <ele>693.281</ele>
        <time>2018-05-13T10:45:49Z</time>
      </trkpt>
      <trkpt lat="38.718216" lon="-0.673423">
        <ele>696.193</ele>
        <time>2018-05-13T10:46:39Z</time>
      </trkpt>
      <trkpt lat="38.719217" lon="-0.671838">
        <ele>700.965</ele>
        <time>2018-05-13T10:47:35Z</time>
      </trkpt>
      <trkpt lat="38.720114" lon="-0.671075">
        <ele>704.821</ele>
        <time>2018-05-13T10:48:14Z</time>
      </trkpt>
      <trkpt lat="38.720411" lon="-0.671125">
        <ele>705.308</ele>
        <time>2018-05-13T10:59:37Z</time>
      </trkpt>
      <trkpt lat="38.720336" lon="-0.670772">
        <ele>705.852</ele>
        <time>2018-05-13T11:00:09Z</time>
      </trkpt>
      <trkpt lat="38.731357" lon="-0.659394">
        <ele>715.424</ele>
        <time>2018-05-13T11:05:47Z</time>
      </trkpt>
      <trkpt lat="38.736243" lon="-0.655451">
        <ele>713.974</ele>
        <time>2018-05-13T11:08:16Z</time>
      </trkpt>
      <trkpt lat="38.736965" lon="-0.656872">
        <ele>709.637</ele>
        <time>2018-05-13T11:10:51Z</time>
      </trkpt>
      <trkpt lat="38.740848" lon="-0.649225">
        <ele>699.561</ele>
        <time>2018-05-13T11:12:57Z</time>
      </trkpt>
      <trkpt lat="38.740963" lon="-0.648556">
        <ele>698.081</ele>
        <time>2018-05-13T11:13:08Z</time>
      </trkpt>
      <trkpt lat="38.741348" lon="-0.648297">
        <ele>697.172</ele>
        <time>2018-05-13T11:13:17Z</time>
      </trkpt>
      <trkpt lat="38.746799" lon="-0.637895">
        <ele>675.596</ele>
        <time>2018-05-13T11:17:34Z</time>
      </trkpt>
      <trkpt lat="38.746804" lon="-0.637274">
        <ele>675.951</ele>
        <time>2018-05-13T11:17:49Z</time>
      </trkpt>
      <trkpt lat="38.745973" lon="-0.636390">
        <ele>681.701</ele>
        <time>2018-05-13T11:18:20Z</time>
      </trkpt>
      <trkpt lat="38.745610" lon="-0.636311">
        <ele>683.211</ele>
        <time>2018-05-13T11:18:31Z</time>
      </trkpt>
      <trkpt lat="38.745559" lon="-0.636024">
        <ele>682.708</ele>
        <time>2018-05-13T11:18:38Z</time>
      </trkpt>
      <trkpt lat="38.747872" lon="-0.631782">
        <ele>681.258</ele>
        <time>2018-05-13T11:19:53Z</time>
      </trkpt>
      <trkpt lat="38.750362" lon="-0.627733">
        <ele>673.130</ele>
        <time>2018-05-13T11:20:49Z</time>
      </trkpt>
      <trkpt lat="38.751250" lon="-0.624449">
        <ele>670.760</ele>
        <time>2018-05-13T11:21:25Z</time>
      </trkpt>
      <trkpt lat="38.752204" lon="-0.621842">
        <ele>669.233</ele>
        <time>2018-05-13T11:23:39Z</time>
      </trkpt>
      <trkpt lat="38.753115" lon="-0.621521">
        <ele>663.917</ele>
        <time>2018-05-13T11:24:01Z</time>
      </trkpt>
      <trkpt lat="38.753936" lon="-0.619475">
        <ele>654.327</ele>
        <time>2018-05-13T11:24:29Z</time>
      </trkpt>
      <trkpt lat="38.754414" lon="-0.619563">
        <ele>651.048</ele>
        <time>2018-05-13T11:24:36Z</time>
      </trkpt>
      <trkpt lat="38.755691" lon="-0.620219">
        <ele>646.162</ele>
        <time>2018-05-13T11:25:01Z</time>
      </trkpt>
      <trkpt lat="38.755887" lon="-0.620182">
        <ele>645.739</ele>
        <time>2018-05-13T11:25:05Z</time>
      </trkpt>
      <trkpt lat="38.755832" lon="-0.618702">
        <ele>640.901</ele>
        <time>2018-05-13T11:25:24Z</time>
      </trkpt>
      <trkpt lat="38.756997" lon="-0.615428">
        <ele>635.621</ele>
        <time>2018-05-13T11:26:14Z</time>
      </trkpt>
      <trkpt lat="38.757091" lon="-0.614766">
        <ele>635.108</ele>
        <time>2018-05-13T11:26:24Z</time>
      </trkpt>
      <trkpt lat="38.757442" lon="-0.614306">
        <ele>634.766</ele>
        <time>2018-05-13T11:26:35Z</time>
      </trkpt>
      <trkpt lat="38.757695" lon="-0.614327">
        <ele>634.678</ele>
        <time>2018-05-13T11:26:41Z</time>
      </trkpt>
      <trkpt lat="38.757851" lon="-0.614800">
        <ele>634.128</ele>
        <time>2018-05-13T11:26:50Z</time>
      </trkpt>
      <trkpt lat="38.759129" lon="-0.616212">
        <ele>626.471</ele>
        <time>2018-05-13T11:27:20Z</time>
      </trkpt>
      <trkpt lat="38.759409" lon="-0.616325">
        <ele>625.555</ele>
        <time>2018-05-13T11:27:26Z</time>
      </trkpt>
      <trkpt lat="38.762219" lon="-0.611527">
        <ele>610.695</ele>
        <time>2018-05-13T11:28:24Z</time>
      </trkpt>
      <trkpt lat="38.762710" lon="-0.610413">
        <ele>611.536</ele>
        <time>2018-05-13T11:28:39Z</time>
      </trkpt>
      <trkpt lat="38.762856" lon="-0.610429">
        <ele>612.060</ele>
        <time>2018-05-13T11:28:43Z</time>
      </trkpt>
      <trkpt lat="38.763106" lon="-0.610930">
        <ele>613.927</ele>
        <time>2018-05-13T11:29:00Z</time>
      </trkpt>
      <trkpt lat="38.763811" lon="-0.610995">
        <ele>619.768</ele>
        <time>2018-05-13T11:29:26Z</time>
      </trkpt>
      <trkpt lat="38.765200" lon="-0.610222">
        <ele>617.814</ele>
        <time>2018-05-13T11:30:08Z</time>
      </trkpt>
      <trkpt lat="38.765622" lon="-0.609652">
        <ele>615.408</ele>
        <time>2018-05-13T11:30:51Z</time>
      </trkpt>
      <trkpt lat="38.765464" lon="-0.609510">
        <ele>613.935</ele>
        <time>2018-05-13T11:50:02Z</time>
      </trkpt>
      <trkpt lat="38.765586" lon="-0.609513">
        <ele>614.957</ele>
        <time>2018-05-13T12:07:03Z</time>
      </trkpt>
      <trkpt lat="38.765172" lon="-0.609529">
        <ele>624.057</ele>
        <time>2018-05-13T13:26:48Z</time>
      </trkpt>
      <trkpt lat="38.765586" lon="-0.609555">
        <ele>640.490</ele>
        <time>2018-05-13T13:27:25Z</time>
      </trkpt>
      <trkpt lat="38.765432" lon="-0.609970">
        <ele>643.324</ele>
        <time>2018-05-13T13:28:40Z</time>
      </trkpt>
      <trkpt lat="38.764347" lon="-0.610710">
        <ele>644.294</ele>
        <time>2018-05-13T13:29:38Z</time>
      </trkpt>
      <trkpt lat="38.764105" lon="-0.611052">
        <ele>644.735</ele>
        <time>2018-05-13T13:29:54Z</time>
      </trkpt>
      <trkpt lat="38.763067" lon="-0.610934">
        <ele>638.599</ele>
        <time>2018-05-13T13:30:13Z</time>
      </trkpt>
      <trkpt lat="38.762731" lon="-0.610735">
        <ele>636.538</ele>
        <time>2018-05-13T13:30:29Z</time>
      </trkpt>
      <trkpt lat="38.762502" lon="-0.610305">
        <ele>636.570</ele>
        <time>2018-05-13T13:30:45Z</time>
      </trkpt>
      <trkpt lat="38.762631" lon="-0.609839">
        <ele>640.417</ele>
        <time>2018-05-13T13:31:03Z</time>
      </trkpt>
      <trkpt lat="38.762516" lon="-0.608799">
        <ele>646.108</ele>
        <time>2018-05-13T13:31:47Z</time>
      </trkpt>
      <trkpt lat="38.767217" lon="-0.599961">
        <ele>630.336</ele>
        <time>2018-05-13T13:35:01Z</time>
      </trkpt>
      <trkpt lat="38.770036" lon="-0.591517">
        <ele>620.728</ele>
        <time>2018-05-13T13:37:19Z</time>
      </trkpt>
      <trkpt lat="38.772356" lon="-0.586933">
        <ele>612.048</ele>
        <time>2018-05-13T13:38:33Z</time>
      </trkpt>
      <trkpt lat="38.774973" lon="-0.581181">
        <ele>603.881</ele>
        <time>2018-05-13T13:40:00Z</time>
      </trkpt>
      <trkpt lat="38.775333" lon="-0.580100">
        <ele>602.495</ele>
        <time>2018-05-13T13:40:15Z</time>
      </trkpt>
      <trkpt lat="38.775458" lon="-0.578978">
        <ele>601.455</ele>
        <time>2018-05-13T13:40:30Z</time>
      </trkpt>
      <trkpt lat="38.775352" lon="-0.577891">
        <ele>600.096</ele>
        <time>2018-05-13T13:40:44Z</time>
      </trkpt>
      <trkpt lat="38.774582" lon="-0.574168">
        <ele>595.250</ele>
        <time>2018-05-13T13:41:34Z</time>
      </trkpt>
      <trkpt lat="38.774463" lon="-0.569713">
        <ele>589.029</ele>
        <time>2018-05-13T13:42:41Z</time>
      </trkpt>
      <trkpt lat="38.776553" lon="-0.557639">
        <ele>580.800</ele>
        <time>2018-05-13T13:45:49Z</time>
      </trkpt>
      <trkpt lat="38.776920" lon="-0.556858">
        <ele>581.220</ele>
        <time>2018-05-13T13:46:02Z</time>
      </trkpt>
      <trkpt lat="38.777607" lon="-0.556079">
        <ele>580.308</ele>
        <time>2018-05-13T13:46:18Z</time>
      </trkpt>
      <trkpt lat="38.778565" lon="-0.555589">
        <ele>578.595</ele>
        <time>2018-05-13T13:46:35Z</time>
      </trkpt>
      <trkpt lat="38.788041" lon="-0.552450">
        <ele>569.247</ele>
        <time>2018-05-13T13:51:40Z</time>
      </trkpt>
      <trkpt lat="38.788691" lon="-0.552046">
        <ele>569.737</ele>
        <time>2018-05-13T13:51:59Z</time>
      </trkpt>
      <trkpt lat="38.793336" lon="-0.546671">
        <ele>576.920</ele>
        <time>2018-05-13T13:54:34Z</time>
      </trkpt>
      <trkpt lat="38.793644" lon="-0.545686">
        <ele>576.564</ele>
        <time>2018-05-13T13:54:51Z</time>
      </trkpt>
      <trkpt lat="38.796006" lon="-0.534364">
        <ele>594.774</ele>
        <time>2018-05-13T13:59:12Z</time>
      </trkpt>
      <trkpt lat="38.798537" lon="-0.534488">
        <ele>586.265</ele>
        <time>2018-05-13T14:02:18Z</time>
      </trkpt>
      <trkpt lat="38.799130" lon="-0.534069">
        <ele>587.019</ele>
        <time>2018-05-13T14:03:14Z</time>
      </trkpt>
      <trkpt lat="38.798222" lon="-0.534568">
        <ele>585.196</ele>
        <time>2018-05-13T14:04:24Z</time>
      </trkpt>
      <trkpt lat="38.797499" lon="-0.534547">
        <ele>584.131</ele>
        <time>2018-05-13T14:05:35Z</time>
      </trkpt>
      <trkpt lat="38.797810" lon="-0.534515">
        <ele>584.624</ele>
        <time>2018-05-13T14:06:03Z</time>
      </trkpt>
      <trkpt lat="38.797254" lon="-0.533385">
        <ele>586.108</ele>
        <time>2018-05-13T14:06:41Z</time>
      </trkpt>
      <trkpt lat="38.796703" lon="-0.531721">
        <ele>589.452</ele>
        <time>2018-05-13T14:07:39Z</time>
      </trkpt>
      <trkpt lat="38.797867" lon="-0.525467">
        <ele>605.814</ele>
        <time>2018-05-13T14:11:28Z</time>
      </trkpt>
      <trkpt lat="38.797880" lon="-0.524455">
        <ele>606.794</ele>
        <time>2018-05-13T14:11:55Z</time>
      </trkpt>
      <trkpt lat="38.796811" lon="-0.516465">
        <ele>597.147</ele>
        <time>2018-05-13T14:14:39Z</time>
      </trkpt>
      <trkpt lat="38.796117" lon="-0.509344">
        <ele>584.641</ele>
        <time>2018-05-13T14:17:21Z</time>
      </trkpt>
      <trkpt lat="38.794884" lon="-0.505073">
        <ele>577.091</ele>
        <time>2018-05-13T14:18:56Z</time>
      </trkpt>
      <trkpt lat="38.794769" lon="-0.504214">
        <ele>576.082</ele>
        <time>2018-05-13T14:19:11Z</time>
      </trkpt>
      <trkpt lat="38.794849" lon="-0.501606">
        <ele>573.176</ele>
        <time>2018-05-13T14:19:51Z</time>
      </trkpt>
      <trkpt lat="38.793818" lon="-0.499189">
        <ele>566.413</ele>
        <time>2018-05-13T14:20:36Z</time>
      </trkpt>
      <trkpt lat="38.793624" lon="-0.499360">
        <ele>563.543</ele>
        <time>2018-05-13T14:22:17Z</time>
      </trkpt>
      <trkpt lat="38.793442" lon="-0.500459">
        <ele>553.907</ele>
        <time>2018-05-13T14:22:38Z</time>
      </trkpt>
      <trkpt lat="38.793162" lon="-0.500803">
        <ele>551.908</ele>
        <time>2018-05-13T14:22:48Z</time>
      </trkpt>
      <trkpt lat="38.792808" lon="-0.500826">
        <ele>557.794</ele>
        <time>2018-05-13T14:23:27Z</time>
      </trkpt>
      <trkpt lat="38.791862" lon="-0.497390">
        <ele>561.526</ele>
        <time>2018-05-13T14:24:34Z</time>
      </trkpt>
      <trkpt lat="38.792452" lon="-0.495309">
        <ele>553.426</ele>
        <time>2018-05-13T14:24:58Z</time>
      </trkpt>
      <trkpt lat="38.793249" lon="-0.494838">
        <ele>547.679</ele>
        <time>2018-05-13T14:25:12Z</time>
      </trkpt>
      <trkpt lat="38.793600" lon="-0.494048">
        <ele>558.293</ele>
        <time>2018-05-13T14:28:16Z</time>
      </trkpt>
      <trkpt lat="38.792556" lon="-0.487910">
        <ele>547.123</ele>
        <time>2018-05-13T14:32:04Z</time>
      </trkpt>
      <trkpt lat="38.792667" lon="-0.485798">
        <ele>543.884</ele>
        <time>2018-05-13T14:32:42Z</time>
      </trkpt>
      <trkpt lat="38.792534" lon="-0.482816">
        <ele>538.078</ele>
        <time>2018-05-13T14:33:34Z</time>
      </trkpt>
      <trkpt lat="38.791193" lon="-0.478348">
        <ele>528.932</ele>
        <time>2018-05-13T14:35:05Z</time>
      </trkpt>
      <trkpt lat="38.791219" lon="-0.477476">
        <ele>526.592</ele>
        <time>2018-05-13T14:35:21Z</time>
      </trkpt>
      <trkpt lat="38.791711" lon="-0.475274">
        <ele>523.611</ele>
        <time>2018-05-13T14:39:07Z</time>
      </trkpt>
      <trkpt lat="38.791484" lon="-0.474306">
        <ele>522.608</ele>
        <time>2018-05-13T14:39:33Z</time>
      </trkpt>
      <trkpt lat="38.790788" lon="-0.472816">
        <ele>518.856</ele>
        <time>2018-05-13T14:40:08Z</time>
      </trkpt>
      <trkpt lat="38.790457" lon="-0.471526">
        <ele>516.878</ele>
        <time>2018-05-13T14:40:36Z</time>
      </trkpt>
      <trkpt lat="38.790485" lon="-0.468047">
        <ele>510.138</ele>
        <time>2018-05-13T14:41:42Z</time>
      </trkpt>
      <trkpt lat="38.789576" lon="-0.463668">
        <ele>502.431</ele>
        <time>2018-05-13T14:43:15Z</time>
      </trkpt>
      <trkpt lat="38.789036" lon="-0.462940">
        <ele>500.535</ele>
        <time>2018-05-13T14:43:33Z</time>
      </trkpt>
      <trkpt lat="38.786906" lon="-0.461595">
        <ele>495.295</ele>
        <time>2018-05-13T14:44:29Z</time>
      </trkpt>
      <trkpt lat="38.784761" lon="-0.461090">
        <ele>490.476</ele>
        <time>2018-05-13T14:45:19Z</time>
      </trkpt>
      <trkpt lat="38.783897" lon="-0.460695">
        <ele>488.580</ele>
        <time>2018-05-13T14:45:37Z</time>
      </trkpt>
    </trkseg>
  </trk>
</gpx>
